sensor_id;sensor_type;location;lat;lon;timestamp;pressure;altitude;pressure_sealevel;temperature;humidity
55801;BME280;41730;51.960;20.158;2022-11-15T00:01:32;100545.54;;;6.84;77.11
55801;BME280;41730;51.960;20.158;2022-11-15T00:04:04;100556.76;;;6.72;77.28
55801;BME280;41730;51.960;20.158;2022-11-15T00:06:36;100559.84;;;6.65;77.90
55801;BME280;41730;51.960;20.158;2022-11-15T00:09:08;100559.13;;;6.65;77.86
55801;BME280;41730;51.960;20.158;2022-11-15T00:11:40;100555.80;;;6.62;78.06
55801;BME280;41730;51.960;20.158;2022-11-15T00:14:12;100556.92;;;6.72;77.72
55801;BME280;41730;51.960;20.158;2022-11-15T00:16:44;100551.66;;;6.64;77.99
55801;BME280;41730;51.960;20.158;2022-11-15T00:19:16;100546.38;;;6.47;78.31
55801;BME280;41730;51.960;20.158;2022-11-15T00:21:47;100542.86;;;6.42;78.62
55801;BME280;41730;51.960;20.158;2022-11-15T00:24:19;100539.05;;;6.51;78.34
55801;BME280;41730;51.960;20.158;2022-11-15T00:26:51;100542.29;;;6.40;78.61
55801;BME280;41730;51.960;20.158;2022-11-15T00:29:38;100537.46;;;6.34;78.95
55801;BME280;41730;51.960;20.158;2022-11-15T00:32:34;100531.02;;;6.51;78.50
55801;BME280;41730;51.960;20.158;2022-11-15T00:35:07;100535.76;;;6.68;77.85
55801;BME280;41730;51.960;20.158;2022-11-15T00:37:38;100526.73;;;6.56;78.04
55801;BME280;41730;51.960;20.158;2022-11-15T00:40:12;100519.70;;;6.48;78.41
55801;BME280;41730;51.960;20.158;2022-11-15T00:42:44;100519.39;;;6.56;78.27
55801;BME280;41730;51.960;20.158;2022-11-15T00:45:16;100515.97;;;6.64;78.14
55801;BME280;41730;51.960;20.158;2022-11-15T00:47:47;100513.26;;;6.79;77.62
55801;BME280;41730;51.960;20.158;2022-11-15T00:50:20;100511.89;;;6.90;77.15
55801;BME280;41730;51.960;20.158;2022-11-15T00:52:51;100508.29;;;7.00;76.80
55801;BME280;41730;51.960;20.158;2022-11-15T00:55:23;100506.40;;;7.02;76.57
55801;BME280;41730;51.960;20.158;2022-11-15T00:58:01;100507.23;;;6.98;76.62
55801;BME280;41730;51.960;20.158;2022-11-15T01:00:40;100508.73;;;6.85;76.96
55801;BME280;41730;51.960;20.158;2022-11-15T01:03:23;100506.27;;;6.79;77.09
55801;BME280;41730;51.960;20.158;2022-11-15T01:06:00;100493.64;;;6.87;76.87
55801;BME280;41730;51.960;20.158;2022-11-15T01:08:32;100488.18;;;6.85;76.81
55801;BME280;41730;51.960;20.158;2022-11-15T01:11:05;100485.80;;;6.72;77.24
55801;BME280;41730;51.960;20.158;2022-11-15T01:13:39;100487.98;;;6.71;77.25
55801;BME280;41730;51.960;20.158;2022-11-15T01:16:14;100477.05;;;6.70;77.46
55801;BME280;41730;51.960;20.158;2022-11-15T01:18:46;100473.20;;;6.74;77.27
55801;BME280;41730;51.960;20.158;2022-11-15T01:21:19;100476.23;;;6.64;77.62
55801;BME280;41730;51.960;20.158;2022-11-15T01:23:54;100469.34;;;6.71;77.53
55801;BME280;41730;51.960;20.158;2022-11-15T01:26:26;100469.73;;;6.82;77.15
55801;BME280;41730;51.960;20.158;2022-11-15T01:28:58;100462.77;;;6.73;77.24
55801;BME280;41730;51.960;20.158;2022-11-15T01:31:30;100456.04;;;6.58;77.84
55801;BME280;41730;51.960;20.158;2022-11-15T01:34:02;100452.98;;;6.56;77.90
55801;BME280;41730;51.960;20.158;2022-11-15T01:36:34;100447.83;;;6.61;77.83
55801;BME280;41730;51.960;20.158;2022-11-15T01:39:07;100445.82;;;6.74;77.54
55801;BME280;41730;51.960;20.158;2022-11-15T01:41:39;100444.30;;;6.89;76.96
55801;BME280;41730;51.960;20.158;2022-11-15T01:44:44;100440.99;;;6.95;76.71
55801;BME280;41730;51.960;20.158;2022-11-15T01:47:20;100439.11;;;6.80;77.05
55801;BME280;41730;51.960;20.158;2022-11-15T01:49:57;100438.91;;;6.89;76.81
55801;BME280;41730;51.960;20.158;2022-11-15T01:52:32;100436.05;;;6.85;76.79
55801;BME280;41730;51.960;20.158;2022-11-15T01:55:08;100430.20;;;6.78;76.87
55801;BME280;41730;51.960;20.158;2022-11-15T01:57:42;100425.42;;;6.77;77.03
55801;BME280;41730;51.960;20.158;2022-11-15T02:00:16;100428.02;;;6.85;76.71
55801;BME280;41730;51.960;20.158;2022-11-15T02:02:48;100426.80;;;6.91;76.50
55801;BME280;41730;51.960;20.158;2022-11-15T02:05:20;100422.74;;;6.94;76.26
55801;BME280;41730;51.960;20.158;2022-11-15T02:07:53;100418.17;;;6.67;76.84
55801;BME280;41730;51.960;20.158;2022-11-15T02:10:27;100412.98;;;6.50;77.68
55801;BME280;41730;51.960;20.158;2022-11-15T02:13:01;100409.55;;;6.52;77.54
55801;BME280;41730;51.960;20.158;2022-11-15T02:15:37;100405.31;;;6.50;77.65
55801;BME280;41730;51.960;20.158;2022-11-15T02:18:19;100400.42;;;6.44;77.77
55801;BME280;41730;51.960;20.158;2022-11-15T02:21:09;100409.41;;;6.60;77.35
55801;BME280;41730;51.960;20.158;2022-11-15T02:32:43;100404.11;;;6.50;77.31
55801;BME280;41730;51.960;20.158;2022-11-15T02:35:21;100400.64;;;6.47;77.45
55801;BME280;41730;51.960;20.158;2022-11-15T02:37:58;100399.35;;;6.37;77.82
55801;BME280;41730;51.960;20.158;2022-11-15T02:40:37;100396.78;;;6.36;78.08
55801;BME280;41730;51.960;20.158;2022-11-15T02:43:12;100397.45;;;6.31;78.32
55801;BME280;41730;51.960;20.158;2022-11-15T02:46:08;100394.75;;;6.32;78.36
55801;BME280;41730;51.960;20.158;2022-11-15T02:48:44;100391.60;;;6.49;77.77
55801;BME280;41730;51.960;20.158;2022-11-15T02:51:18;100388.16;;;6.57;77.49
55801;BME280;41730;51.960;20.158;2022-11-15T02:53:50;100387.55;;;6.58;77.51
55801;BME280;41730;51.960;20.158;2022-11-15T02:56:22;100388.54;;;6.65;77.34
55801;BME280;41730;51.960;20.158;2022-11-15T02:59:11;100388.36;;;6.71;77.19
55801;BME280;41730;51.960;20.158;2022-11-15T03:01:59;100382.45;;;6.81;76.83
55801;BME280;41730;51.960;20.158;2022-11-15T03:04:41;100382.15;;;6.91;76.49
55801;BME280;41730;51.960;20.158;2022-11-15T03:07:22;100373.84;;;6.90;76.26
55801;BME280;41730;51.960;20.158;2022-11-15T03:10:05;100377.92;;;6.84;76.47
55801;BME280;41730;51.960;20.158;2022-11-15T03:12:40;100372.30;;;6.65;76.83
55801;BME280;41730;51.960;20.158;2022-11-15T03:15:20;100374.50;;;6.61;77.30
55801;BME280;41730;51.960;20.158;2022-11-15T03:17:57;100369.29;;;6.72;76.80
55801;BME280;41730;51.960;20.158;2022-11-15T03:20:32;100367.34;;;6.78;76.62
55801;BME280;41730;51.960;20.158;2022-11-15T03:23:08;100371.65;;;6.78;76.45
55801;BME280;41730;51.960;20.158;2022-11-15T03:25:43;100366.31;;;6.77;76.64
55801;BME280;41730;51.960;20.158;2022-11-15T03:28:22;100358.44;;;6.67;76.85
55801;BME280;41730;51.960;20.158;2022-11-15T03:30:56;100353.66;;;6.68;76.88
55801;BME280;41730;51.960;20.158;2022-11-15T03:33:31;100350.56;;;6.73;76.66
55801;BME280;41730;51.960;20.158;2022-11-15T03:36:03;100351.98;;;6.78;76.60
55801;BME280;41730;51.960;20.158;2022-11-15T03:38:36;100347.10;;;6.70;76.80
55801;BME280;41730;51.960;20.158;2022-11-15T03:41:13;100341.95;;;6.71;76.84
55801;BME280;41730;51.960;20.158;2022-11-15T03:43:50;100338.85;;;6.68;76.74
55801;BME280;41730;51.960;20.158;2022-11-15T03:46:27;100337.04;;;6.66;76.87
55801;BME280;41730;51.960;20.158;2022-11-15T03:49:06;100338.48;;;6.55;77.15
55801;BME280;41730;51.960;20.158;2022-11-15T03:51:40;100337.89;;;6.50;77.31
55801;BME280;41730;51.960;20.158;2022-11-15T03:54:13;100338.98;;;6.55;77.42
55801;BME280;41730;51.960;20.158;2022-11-15T03:56:45;100332.40;;;6.63;77.15
55801;BME280;41730;51.960;20.158;2022-11-15T03:59:17;100336.42;;;6.59;77.26
55801;BME280;41730;51.960;20.158;2022-11-15T04:01:49;100327.07;;;6.56;77.31
55801;BME280;41730;51.960;20.158;2022-11-15T04:04:21;100323.77;;;6.58;77.42
55801;BME280;41730;51.960;20.158;2022-11-15T04:06:53;100322.16;;;6.65;77.33
55801;BME280;41730;51.960;20.158;2022-11-15T04:09:25;100320.56;;;6.71;77.06
55801;BME280;41730;51.960;20.158;2022-11-15T04:11:57;100316.66;;;6.72;77.08
55801;BME280;41730;51.960;20.158;2022-11-15T04:14:29;100317.38;;;6.74;77.02
55801;BME280;41730;51.960;20.158;2022-11-15T04:17:01;100315.80;;;6.74;76.88
55801;BME280;41730;51.960;20.158;2022-11-15T04:19:33;100306.50;;;6.78;76.97
55801;BME280;41730;51.960;20.158;2022-11-15T04:22:22;100312.30;;;6.72;77.01
55801;BME280;41730;51.960;20.158;2022-11-15T04:25:16;100307.39;;;6.59;77.42
55801;BME280;41730;51.960;20.158;2022-11-15T04:28:03;100303.80;;;6.64;77.23
55801;BME280;41730;51.960;20.158;2022-11-15T04:30:44;100300.21;;;6.76;76.85
55801;BME280;41730;51.960;20.158;2022-11-15T04:33:20;100293.68;;;6.69;77.05
55801;BME280;41730;51.960;20.158;2022-11-15T04:35:52;100303.56;;;6.64;77.16
55801;BME280;41730;51.960;20.158;2022-11-15T04:38:41;100289.63;;;6.56;77.40
55801;BME280;41730;51.960;20.158;2022-11-15T04:41:13;100296.70;;;6.57;77.53
55801;BME280;41730;51.960;20.158;2022-11-15T04:43:45;100297.84;;;6.55;77.67
55801;BME280;41730;51.960;20.158;2022-11-15T04:46:17;100295.29;;;6.71;77.26
55801;BME280;41730;51.960;20.158;2022-11-15T04:48:49;100295.16;;;6.70;77.27
55801;BME280;41730;51.960;20.158;2022-11-15T04:51:27;100292.44;;;6.75;77.26
55801;BME280;41730;51.960;20.158;2022-11-15T04:53:59;100285.40;;;6.78;76.93
55801;BME280;41730;51.960;20.158;2022-11-15T04:56:31;100283.08;;;6.71;77.07
55801;BME280;41730;51.960;20.158;2022-11-15T04:59:03;100276.19;;;6.72;77.02
55801;BME280;41730;51.960;20.158;2022-11-15T05:01:35;100275.88;;;6.61;77.44
55801;BME280;41730;51.960;20.158;2022-11-15T05:04:13;100262.70;;;6.57;77.66
55801;BME280;41730;51.960;20.158;2022-11-15T05:06:52;100264.68;;;6.65;77.43
55801;BME280;41730;51.960;20.158;2022-11-15T05:09:23;100262.92;;;6.59;77.61
55801;BME280;41730;51.960;20.158;2022-11-15T05:11:55;100261.77;;;6.61;77.59
55801;BME280;41730;51.960;20.158;2022-11-15T05:14:27;100254.46;;;6.64;77.49
55801;BME280;41730;51.960;20.158;2022-11-15T05:16:59;100256.98;;;6.57;77.71
55801;BME280;41730;51.960;20.158;2022-11-15T05:19:32;100258.84;;;6.52;77.89
55801;BME280;41730;51.960;20.158;2022-11-15T05:22:04;100255.64;;;6.51;77.91
55801;BME280;41730;51.960;20.158;2022-11-15T05:24:35;100261.34;;;6.46;78.04
55801;BME280;41730;51.960;20.158;2022-11-15T05:27:07;100257.70;;;6.44;78.16
55801;BME280;41730;51.960;20.158;2022-11-15T05:29:39;100258.73;;;6.41;78.24
55801;BME280;41730;51.960;20.158;2022-11-15T05:32:11;100262.77;;;6.43;78.30
55801;BME280;41730;51.960;20.158;2022-11-15T05:34:43;100262.58;;;6.52;78.11
55801;BME280;41730;51.960;20.158;2022-11-15T05:37:16;100257.95;;;6.55;77.98
55801;BME280;41730;51.960;20.158;2022-11-15T05:39:48;100255.96;;;6.59;77.77
55801;BME280;41730;51.960;20.158;2022-11-15T05:42:20;100257.21;;;6.48;78.09
55801;BME280;41730;51.960;20.158;2022-11-15T05:44:52;100254.58;;;6.43;78.30
55801;BME280;41730;51.960;20.158;2022-11-15T05:47:26;100259.11;;;6.46;78.19
55801;BME280;41730;51.960;20.158;2022-11-15T05:49:59;100258.68;;;6.55;78.05
55801;BME280;41730;51.960;20.158;2022-11-15T05:52:33;100253.25;;;6.53;78.16
55801;BME280;41730;51.960;20.158;2022-11-15T05:55:08;100258.45;;;6.61;77.96
55801;BME280;41730;51.960;20.158;2022-11-15T05:57:41;100255.83;;;6.72;77.47
55801;BME280;41730;51.960;20.158;2022-11-15T06:00:14;100248.55;;;6.77;77.36
55801;BME280;41730;51.960;20.158;2022-11-15T06:02:46;100249.58;;;6.72;77.38
55801;BME280;41730;51.960;20.158;2022-11-15T06:05:18;100255.92;;;6.60;77.75
55801;BME280;41730;51.960;20.158;2022-11-15T06:07:50;100256.85;;;6.56;77.93
55801;BME280;41730;51.960;20.158;2022-11-15T06:10:22;100253.30;;;6.49;78.22
55801;BME280;41730;51.960;20.158;2022-11-15T06:12:59;100245.30;;;6.47;78.27
55801;BME280;41730;51.960;20.158;2022-11-15T06:15:33;100241.50;;;6.46;78.19
55801;BME280;41730;51.960;20.158;2022-11-15T06:18:05;100253.37;;;6.51;78.29
55801;BME280;41730;51.960;20.158;2022-11-15T06:20:36;100258.71;;;6.54;78.27
55801;BME280;41730;51.960;20.158;2022-11-15T06:23:08;100261.23;;;6.61;78.13
55801;BME280;41730;51.960;20.158;2022-11-15T06:25:40;100260.14;;;6.75;77.80
55801;BME280;41730;51.960;20.158;2022-11-15T06:28:11;100259.08;;;6.86;77.50
55801;BME280;41730;51.960;20.158;2022-11-15T06:30:43;100255.48;;;6.83;77.46
55801;BME280;41730;51.960;20.158;2022-11-15T06:33:21;100255.83;;;6.72;77.87
55801;BME280;41730;51.960;20.158;2022-11-15T06:35:53;100262.57;;;6.68;78.13
55801;BME280;41730;51.960;20.158;2022-11-15T06:38:25;100260.99;;;6.71;78.16
55801;BME280;41730;51.960;20.158;2022-11-15T06:41:02;100257.17;;;6.73;78.09
55801;BME280;41730;51.960;20.158;2022-11-15T06:43:35;100253.88;;;6.73;78.09
55801;BME280;41730;51.960;20.158;2022-11-15T06:46:08;100256.20;;;6.64;78.40
55801;BME280;41730;51.960;20.158;2022-11-15T06:48:40;100254.79;;;6.67;78.47
55801;BME280;41730;51.960;20.158;2022-11-15T06:51:11;100259.49;;;6.75;78.33
55801;BME280;41730;51.960;20.158;2022-11-15T06:53:43;100258.30;;;6.90;77.76
55801;BME280;41730;51.960;20.158;2022-11-15T06:56:14;100259.56;;;6.92;77.79
55801;BME280;41730;51.960;20.158;2022-11-15T06:58:46;100259.32;;;6.93;77.45
55801;BME280;41730;51.960;20.158;2022-11-15T07:01:17;100257.83;;;6.87;77.42
55801;BME280;41730;51.960;20.158;2022-11-15T07:03:49;100255.95;;;6.73;78.02
55801;BME280;41730;51.960;20.158;2022-11-15T07:06:21;100255.83;;;6.78;78.02
55801;BME280;41730;51.960;20.158;2022-11-15T07:08:53;100253.14;;;6.81;77.92
55801;BME280;41730;51.960;20.158;2022-11-15T07:11:25;100247.37;;;6.89;77.84
55801;BME280;41730;51.960;20.158;2022-11-15T07:13:57;100247.20;;;7.02;77.50
55801;BME280;41730;51.960;20.158;2022-11-15T07:16:29;100245.52;;;7.07;77.44
55801;BME280;41730;51.960;20.158;2022-11-15T07:19:01;100246.25;;;6.95;77.81
55801;BME280;41730;51.960;20.158;2022-11-15T07:21:34;100252.63;;;6.96;78.00
55801;BME280;41730;51.960;20.158;2022-11-15T07:24:06;100249.52;;;7.15;77.51
55801;BME280;41730;51.960;20.158;2022-11-15T07:26:38;100251.64;;;7.14;77.46
55801;BME280;41730;51.960;20.158;2022-11-15T07:29:11;100246.45;;;7.21;77.49
55801;BME280;41730;51.960;20.158;2022-11-15T07:31:43;100249.56;;;7.21;77.49
55801;BME280;41730;51.960;20.158;2022-11-15T07:34:15;100245.69;;;7.30;77.41
55801;BME280;41730;51.960;20.158;2022-11-15T07:36:47;100250.73;;;7.22;77.48
55801;BME280;41730;51.960;20.158;2022-11-15T07:39:19;100254.23;;;7.12;78.06
55801;BME280;41730;51.960;20.158;2022-11-15T07:41:52;100252.45;;;7.04;78.23
55801;BME280;41730;51.960;20.158;2022-11-15T07:44:44;100248.14;;;7.12;78.22
55801;BME280;41730;51.960;20.158;2022-11-15T07:47:16;100243.86;;;7.18;78.16
55801;BME280;41730;51.960;20.158;2022-11-15T07:49:48;100241.52;;;7.22;77.81
55801;BME280;41730;51.960;20.158;2022-11-15T07:52:19;100253.09;;;7.13;78.20
55801;BME280;41730;51.960;20.158;2022-11-15T07:54:51;100243.59;;;7.35;77.78
55801;BME280;41730;51.960;20.158;2022-11-15T07:57:23;100246.65;;;7.52;77.42
55801;BME280;41730;51.960;20.158;2022-11-15T07:59:54;100244.69;;;7.57;77.00
55801;BME280;41730;51.960;20.158;2022-11-15T08:02:26;100238.21;;;7.52;77.52
55801;BME280;41730;51.960;20.158;2022-11-15T08:04:59;100239.45;;;7.69;76.90
55801;BME280;41730;51.960;20.158;2022-11-15T08:07:32;100238.02;;;7.72;76.90
55801;BME280;41730;51.960;20.158;2022-11-15T08:10:05;100229.84;;;7.65;76.92
55801;BME280;41730;51.960;20.158;2022-11-15T08:12:38;100231.12;;;7.52;77.63
55801;BME280;41730;51.960;20.158;2022-11-15T08:15:11;100232.73;;;7.45;77.78
55801;BME280;41730;51.960;20.158;2022-11-15T08:17:43;100231.08;;;7.52;77.57
55801;BME280;41730;51.960;20.158;2022-11-15T08:20:15;100222.02;;;7.67;77.17
55801;BME280;41730;51.960;20.158;2022-11-15T08:22:47;100214.45;;;7.72;77.05
55801;BME280;41730;51.960;20.158;2022-11-15T08:25:19;100210.33;;;7.67;77.09
55801;BME280;41730;51.960;20.158;2022-11-15T08:27:52;100213.73;;;7.68;77.58
55801;BME280;41730;51.960;20.158;2022-11-15T08:30:24;100209.19;;;7.78;77.09
55801;BME280;41730;51.960;20.158;2022-11-15T08:32:58;100207.48;;;7.87;77.00
55801;BME280;41730;51.960;20.158;2022-11-15T08:35:30;100205.73;;;7.87;76.81
55801;BME280;41730;51.960;20.158;2022-11-15T08:38:02;100206.36;;;8.03;76.49
55801;BME280;41730;51.960;20.158;2022-11-15T08:40:34;100204.38;;;8.04;76.51
55801;BME280;41730;51.960;20.158;2022-11-15T08:43:06;100204.09;;;8.03;76.70
55801;BME280;41730;51.960;20.158;2022-11-15T08:45:39;100203.92;;;8.03;76.48
55801;BME280;41730;51.960;20.158;2022-11-15T08:48:11;100204.27;;;7.94;76.78
55801;BME280;41730;51.960;20.158;2022-11-15T08:50:43;100204.09;;;8.01;77.02
55801;BME280;41730;51.960;20.158;2022-11-15T08:53:15;100197.99;;;8.03;76.79
55801;BME280;41730;51.960;20.158;2022-11-15T08:55:46;100201.18;;;7.97;76.75
55801;BME280;41730;51.960;20.158;2022-11-15T08:58:18;100199.72;;;8.05;76.57
55801;BME280;41730;51.960;20.158;2022-11-15T09:00:50;100200.31;;;8.09;76.72
55801;BME280;41730;51.960;20.158;2022-11-15T09:03:22;100196.88;;;8.06;77.01
55801;BME280;41730;51.960;20.158;2022-11-15T09:05:57;100192.45;;;8.07;76.71
55801;BME280;41730;51.960;20.158;2022-11-15T09:08:32;100195.38;;;8.15;76.47
55801;BME280;41730;51.960;20.158;2022-11-15T09:11:19;100195.59;;;8.21;76.21
55801;BME280;41730;51.960;20.158;2022-11-15T09:13:52;100193.79;;;8.29;76.42
55801;BME280;41730;51.960;20.158;2022-11-15T09:16:24;100187.96;;;8.25;76.54
55801;BME280;41730;51.960;20.158;2022-11-15T09:18:55;100188.15;;;8.16;76.45
55801;BME280;41730;51.960;20.158;2022-11-15T09:21:27;100187.17;;;8.12;76.70
55801;BME280;41730;51.960;20.158;2022-11-15T09:24:00;100185.30;;;8.14;76.83
55801;BME280;41730;51.960;20.158;2022-11-15T09:26:32;100179.64;;;8.32;76.88
55801;BME280;41730;51.960;20.158;2022-11-15T09:29:04;100179.44;;;8.49;75.98
55801;BME280;41730;51.960;20.158;2022-11-15T09:31:36;100169.73;;;8.50;76.03
55801;BME280;41730;51.960;20.158;2022-11-15T09:34:07;100163.15;;;8.45;76.34
55801;BME280;41730;51.960;20.158;2022-11-15T09:36:40;100162.18;;;8.55;75.69
55801;BME280;41730;51.960;20.158;2022-11-15T09:39:12;100160.28;;;8.67;75.79
55801;BME280;41730;51.960;20.158;2022-11-15T09:41:57;100159.06;;;8.64;75.35
55801;BME280;41730;51.960;20.158;2022-11-15T09:44:58;100157.29;;;8.53;76.00
55801;BME280;41730;51.960;20.158;2022-11-15T09:47:54;100158.73;;;8.73;75.50
55801;BME280;41730;51.960;20.158;2022-11-15T09:50:34;100159.56;;;8.62;75.81
55801;BME280;41730;51.960;20.158;2022-11-15T09:53:14;100153.52;;;8.64;75.78
55801;BME280;41730;51.960;20.158;2022-11-15T09:56:16;100143.04;;;8.75;75.36
55801;BME280;41730;51.960;20.158;2022-11-15T09:58:53;100138.34;;;8.75;75.33
55801;BME280;41730;51.960;20.158;2022-11-15T10:01:39;100140.61;;;8.77;75.50
55801;BME280;41730;51.960;20.158;2022-11-15T10:04:13;100145.85;;;8.91;75.03
55801;BME280;41730;51.960;20.158;2022-11-15T10:06:52;100137.33;;;8.93;74.91
55801;BME280;41730;51.960;20.158;2022-11-15T10:09:27;100136.48;;;8.95;75.27
55801;BME280;41730;51.960;20.158;2022-11-15T10:12:00;100130.21;;;9.03;75.28
55801;BME280;41730;51.960;20.158;2022-11-15T10:14:32;100125.14;;;9.12;74.63
55801;BME280;41730;51.960;20.158;2022-11-15T10:17:24;100123.39;;;9.22;74.63
55801;BME280;41730;51.960;20.158;2022-11-15T10:20:07;100114.58;;;9.33;74.28
55801;BME280;41730;51.960;20.158;2022-11-15T10:22:44;100114.42;;;9.38;74.09
55801;BME280;41730;51.960;20.158;2022-11-15T10:25:23;100110.77;;;9.33;74.26
55801;BME280;41730;51.960;20.158;2022-11-15T10:27:57;100103.95;;;9.35;74.12
55801;BME280;41730;51.960;20.158;2022-11-15T10:30:35;100103.20;;;9.42;74.17
55801;BME280;41730;51.960;20.158;2022-11-15T10:33:19;100106.39;;;9.42;74.23
55801;BME280;41730;51.960;20.158;2022-11-15T10:36:15;100109.60;;;9.45;74.25
55801;BME280;41730;51.960;20.158;2022-11-15T10:38:58;100104.02;;;9.40;74.33
55801;BME280;41730;51.960;20.158;2022-11-15T10:41:37;100102.63;;;9.45;74.05
55801;BME280;41730;51.960;20.158;2022-11-15T10:44:27;100099.34;;;9.53;74.12
55801;BME280;41730;51.960;20.158;2022-11-15T10:47:24;100093.83;;;9.63;73.85
55801;BME280;41730;51.960;20.158;2022-11-15T10:49:58;100087.60;;;9.75;73.72
55801;BME280;41730;51.960;20.158;2022-11-15T10:52:29;100088.36;;;9.76;73.42
55801;BME280;41730;51.960;20.158;2022-11-15T10:55:12;100083.30;;;9.72;73.68
55801;BME280;41730;51.960;20.158;2022-11-15T10:57:53;100079.23;;;9.75;73.98
55801;BME280;41730;51.960;20.158;2022-11-15T11:00:29;100078.75;;;9.98;73.50
55801;BME280;41730;51.960;20.158;2022-11-15T11:03:03;100073.83;;;10.19;73.09
55801;BME280;41730;51.960;20.158;2022-11-15T11:05:38;100076.67;;;10.17;73.10
55801;BME280;41730;51.960;20.158;2022-11-15T11:08:28;100069.43;;;10.15;73.30
55801;BME280;41730;51.960;20.158;2022-11-15T11:11:01;100062.16;;;10.25;73.17
55801;BME280;41730;51.960;20.158;2022-11-15T11:13:35;100060.28;;;10.43;72.82
55801;BME280;41730;51.960;20.158;2022-11-15T11:16:40;100060.61;;;10.45;72.37
55801;BME280;41730;51.960;20.158;2022-11-15T11:19:52;100049.96;;;10.37;72.68
55801;BME280;41730;51.960;20.158;2022-11-15T11:22:34;100046.64;;;10.31;72.96
55801;BME280;41730;51.960;20.158;2022-11-15T11:25:23;100045.81;;;10.30;72.88
55801;BME280;41730;51.960;20.158;2022-11-15T11:28:10;100042.48;;;10.21;72.95
55801;BME280;41730;51.960;20.158;2022-11-15T11:30:54;100031.98;;;10.25;72.98
55801;BME280;41730;51.960;20.158;2022-11-15T11:33:33;100025.05;;;10.31;72.60
55801;BME280;41730;51.960;20.158;2022-11-15T11:36:16;100021.52;;;10.33;72.48
55801;BME280;41730;51.960;20.158;2022-11-15T11:39:00;100016.92;;;10.32;72.40
55801;BME280;41730;51.960;20.158;2022-11-15T11:41:46;100012.70;;;10.21;72.59
55801;BME280;41730;51.960;20.158;2022-11-15T11:44:30;100013.49;;;10.16;72.82
55801;BME280;41730;51.960;20.158;2022-11-15T11:47:09;100009.02;;;10.15;72.95
55801;BME280;41730;51.960;20.158;2022-11-15T11:49:46;100002.16;;;10.11;73.06
55801;BME280;41730;51.960;20.158;2022-11-15T11:52:24;100001.20;;;10.10;73.02
55801;BME280;41730;51.960;20.158;2022-11-15T11:55:03;100003.27;;;10.11;72.94
55801;BME280;41730;51.960;20.158;2022-11-15T11:57:41;99995.82;;;10.18;72.74
55801;BME280;41730;51.960;20.158;2022-11-15T12:00:21;99994.88;;;10.39;72.29
55801;BME280;41730;51.960;20.158;2022-11-15T12:03:02;99994.81;;;10.42;72.20
55801;BME280;41730;51.960;20.158;2022-11-15T12:05:39;99994.05;;;10.51;71.94
55801;BME280;41730;51.960;20.158;2022-11-15T12:08:25;99996.59;;;10.58;71.34
55801;BME280;41730;51.960;20.158;2022-11-15T12:11:03;99989.51;;;10.63;71.28
55801;BME280;41730;51.960;20.158;2022-11-15T12:13:37;99987.77;;;10.73;70.98
55801;BME280;41730;51.960;20.158;2022-11-15T12:16:14;99982.77;;;10.74;70.80
55801;BME280;41730;51.960;20.158;2022-11-15T12:18:50;99981.02;;;10.68;71.16
55801;BME280;41730;51.960;20.158;2022-11-15T12:21:22;99983.29;;;10.54;71.43
55801;BME280;41730;51.960;20.158;2022-11-15T12:24:02;99988.48;;;10.55;71.72
55801;BME280;41730;51.960;20.158;2022-11-15T12:26:39;99988.80;;;10.63;71.49
55801;BME280;41730;51.960;20.158;2022-11-15T12:29:18;99985.98;;;10.61;71.11
55801;BME280;41730;51.960;20.158;2022-11-15T12:31:52;99982.44;;;10.56;71.12
55801;BME280;41730;51.960;20.158;2022-11-15T12:34:39;99977.63;;;10.57;71.06
55801;BME280;41730;51.960;20.158;2022-11-15T12:37:44;99974.73;;;10.54;71.10
55801;BME280;41730;51.960;20.158;2022-11-15T12:40:35;99969.50;;;10.52;71.11
55801;BME280;41730;51.960;20.158;2022-11-15T12:46:22;99977.21;;;10.49;71.31
55801;BME280;41730;51.960;20.158;2022-11-15T12:48:59;99968.88;;;10.59;70.94
55801;BME280;41730;51.960;20.158;2022-11-15T12:58:40;99959.87;;;10.67;70.81
55801;BME280;41730;51.960;20.158;2022-11-15T13:04:29;99960.98;;;10.64;70.72
55801;BME280;41730;51.960;20.158;2022-11-15T13:07:04;99953.92;;;10.61;70.71
55801;BME280;41730;51.960;20.158;2022-11-15T13:09:54;99950.50;;;10.70;70.52
55801;BME280;41730;51.960;20.158;2022-11-15T13:12:54;99942.60;;;10.79;70.13
55801;BME280;41730;51.960;20.158;2022-11-15T13:15:38;99946.83;;;10.66;70.48
55801;BME280;41730;51.960;20.158;2022-11-15T13:18:30;99941.64;;;10.69;70.53
55801;BME280;41730;51.960;20.158;2022-11-15T13:21:04;99937.05;;;10.74;70.41
55801;BME280;41730;51.960;20.158;2022-11-15T13:23:59;99930.20;;;10.78;70.02
55801;BME280;41730;51.960;20.158;2022-11-15T13:26:30;99930.97;;;10.77;70.01
55801;BME280;41730;51.960;20.158;2022-11-15T13:29:02;99927.90;;;10.68;70.23
55801;BME280;41730;51.960;20.158;2022-11-15T13:31:40;99928.10;;;10.56;70.41
55801;BME280;41730;51.960;20.158;2022-11-15T13:34:32;99922.55;;;10.53;70.57
55801;BME280;41730;51.960;20.158;2022-11-15T13:37:32;99920.06;;;10.50;70.64
55801;BME280;41730;51.960;20.158;2022-11-15T13:40:29;99915.02;;;10.49;70.45
55801;BME280;41730;51.960;20.158;2022-11-15T13:43:02;99911.50;;;10.51;70.48
55801;BME280;41730;51.960;20.158;2022-11-15T13:45:45;99909.70;;;10.45;70.50
55801;BME280;41730;51.960;20.158;2022-11-15T13:48:16;99907.29;;;10.37;70.67
55801;BME280;41730;51.960;20.158;2022-11-15T13:50:48;99899.41;;;10.31;70.84
55801;BME280;41730;51.960;20.158;2022-11-15T13:53:19;99898.89;;;10.24;71.17
55801;BME280;41730;51.960;20.158;2022-11-15T13:55:51;99903.55;;;10.27;71.15
55801;BME280;41730;51.960;20.158;2022-11-15T13:58:27;99900.76;;;10.23;71.18
55801;BME280;41730;51.960;20.158;2022-11-15T14:01:02;99900.54;;;10.17;71.34